Time;durP1;ratioP1;P1;durP2;ratioP2;P2;SDS_P1;SDS_P2;PMS_P1;PMS_P2;Temp;Humidity;BMP_temperature;BMP_pressure;BME280_temperature;BME280_humidity;BME280_pressure;Samples;Min_cycle;Max_cycle;Signal;HPM_P1;HPM_P2
2022/09/05 00:02:32;;;;;;;6.60;5.30;;;;;;;;;;5051473;28;20021;-74
2022/09/05 00:05:20;;;;;;;7.68;5.55;;;;;;;;;;5052438;28;20107;-74
2022/09/05 00:08:16;;;;;;;7.82;4.57;;;;;;;;;;5052692;28;20453;-74
2022/09/05 00:11:04;;;;;;;6.13;4.82;;;;;;;;;;5052793;28;20036;-74
2022/09/05 00:13:45;;;;;;;6.97;5.18;;;;;;;;;;5051903;28;20037;-74
2022/09/05 00:16:48;;;;;;;8.07;5.45;;;;;;;;;;5052745;28;20028;-74
2022/09/05 00:19:42;;;;;;;7.88;5.03;;;;;;;;;;5051196;28;20025;-74
2022/09/05 00:22:19;;;;;;;7.68;5.22;;;;;;;;;;5052842;28;20025;-74
2022/09/05 00:24:52;;;;;;;8.05;5.10;;;;;;;;;;5053069;28;20108;-74
2022/09/05 00:27:29;;;;;;;8.02;5.20;;;;;;;;;;5052664;28;20031;-74
2022/09/05 00:30:05;;;;;;;6.93;5.40;;;;;;;;;;5052988;28;20430;-73
2022/09/05 00:32:44;;;;;;;6.30;5.28;;;;;;;;;;5052535;28;20083;-74
2022/09/05 00:35:24;;;;;;;10.85;5.05;;;;;;;;;;5052818;28;20025;-73
2022/09/05 00:37:51;;;;;;;9.75;5.63;;;;;;;;;;5052359;28;20029;-74
2022/09/05 00:40:26;;;;;;;9.35;5.65;;;;;;;;;;5051094;28;20024;-74
2022/09/05 00:42:58;;;;;;;7.57;5.75;;;;;;;;;;5053111;28;20363;-73
2022/09/05 00:45:33;;;;;;;7.38;5.50;;;;;;;;;;5052634;28;20025;-73
2022/09/05 00:48:15;;;;;;;6.47;5.25;;;;;;;;;;5055934;28;20474;-75
2022/09/05 00:50:56;;;;;;;6.60;5.38;;;;;;;;;;5056442;28;20031;-74
2022/09/05 00:53:35;;;;;;;6.78;5.13;;;;;;;;;;5054477;28;20040;-76
2022/09/05 00:56:19;;;;;;;6.60;5.30;;;;;;;;;;5055814;28;20094;-75
2022/09/05 00:59:06;;;;;;;8.50;5.63;;;;;;;;;;5056356;28;20033;-74
2022/09/05 01:01:49;;;;;;;7.57;5.53;;;;;;;;;;5055897;28;20068;-75
2022/09/05 01:04:26;;;;;;;7.45;5.13;;;;;;;;;;5055884;28;20476;-75
2022/09/05 01:07:02;;;;;;;8.82;5.55;;;;;;;;;;5055427;28;20235;-74
2022/09/05 01:10:03;;;;;;;7.28;5.63;;;;;;;;;;5055770;28;20372;-74
2022/09/05 01:12:51;;;;;;;7.68;5.38;;;;;;;;;;5054076;28;20021;-75
2022/09/05 01:15:28;;;;;;;8.23;5.82;;;;;;;;;;5055298;28;20525;-75
2022/09/05 01:18:19;;;;;;;8.00;5.18;;;;;;;;;;5053947;28;20498;-74
2022/09/05 01:21:03;;;;;;;7.43;5.38;;;;;;;;;;5055224;28;20064;-74
2022/09/05 01:23:44;;;;;;;8.70;5.80;;;;;;;;;;5055465;28;20025;-73
2022/09/05 01:26:09;;;;;;;9.70;5.68;;;;;;;;;;5055155;28;20075;-73
2022/09/05 01:28:56;;;;;;;6.73;5.47;;;;;;;;;;5055366;28;20025;-74
2022/09/05 01:31:32;;;;;;;7.75;5.63;;;;;;;;;;5055610;28;20025;-74
2022/09/05 01:34:22;;;;;;;9.68;5.45;;;;;;;;;;5055337;28;20059;-74
2022/09/05 01:37:18;;;;;;;9.57;5.28;;;;;;;;;;5050345;28;20047;-74
2022/09/05 01:39:56;;;;;;;7.55;5.88;;;;;;;;;;5054908;28;20021;-75
2022/09/05 01:43:00;;;;;;;8.75;5.60;;;;;;;;;;5053605;28;20025;-74
2022/09/05 01:45:44;;;;;;;9.48;5.90;;;;;;;;;;5054121;28;20033;-74
2022/09/05 01:48:32;;;;;;;8.45;5.80;;;;;;;;;;5054795;28;20025;-74
2022/09/05 01:51:24;;;;;;;7.75;5.43;;;;;;;;;;5054697;28;20150;-74
2022/09/05 01:54:09;;;;;;;6.90;5.53;;;;;;;;;;5054898;28;20044;-74
2022/09/05 01:56:46;;;;;;;10.60;5.57;;;;;;;;;;5052813;28;20021;-73
2022/09/05 01:59:20;;;;;;;9.98;5.80;;;;;;;;;;5054719;28;20493;-73
2022/09/05 02:02:11;;;;;;;8.95;5.68;;;;;;;;;;5053184;28;20118;-73
2022/09/05 02:04:58;;;;;;;7.45;6.00;;;;;;;;;;5054753;28;20025;-74
2022/09/05 02:07:50;;;;;;;10.45;5.75;;;;;;;;;;5054296;28;20033;-74
2022/09/05 02:10:46;;;;;;;6.95;5.60;;;;;;;;;;5054583;28;20078;-74
2022/09/05 02:13:33;;;;;;;9.23;6.05;;;;;;;;;;5054830;28;20091;-75
2022/09/05 02:16:18;;;;;;;8.90;6.15;;;;;;;;;;5054349;28;20028;-74
2022/09/05 02:19:00;;;;;;;7.70;5.72;;;;;;;;;;5054043;28;20109;-74
2022/09/05 02:21:37;;;;;;;8.75;6.20;;;;;;;;;;5054651;28;20025;-74
2022/09/05 02:24:14;;;;;;;7.03;6.00;;;;;;;;;;5054815;28;20425;-74
2022/09/05 02:27:05;;;;;;;8.10;6.05;;;;;;;;;;5052741;28;20059;-75
2022/09/05 02:29:57;;;;;;;8.20;5.88;;;;;;;;;;5054212;28;20021;-74
2022/09/05 02:32:47;;;;;;;9.75;6.30;;;;;;;;;;5052703;28;20024;-74
2022/09/05 02:35:31;;;;;;;9.98;5.97;;;;;;;;;;5054082;28;20021;-74
2022/09/05 02:38:07;;;;;;;8.13;6.07;;;;;;;;;;5053964;28;20501;-75
2022/09/05 02:40:39;;;;;;;8.30;6.20;;;;;;;;;;5053702;28;20021;-74
2022/09/05 02:43:41;;;;;;;8.25;6.13;;;;;;;;;;5053692;28;20075;-74
2022/09/05 02:46:23;;;;;;;9.77;5.47;;;;;;;;;;5052314;28;20029;-74
2022/09/05 02:48:57;;;;;;;8.85;5.78;;;;;;;;;;5053594;28;20382;-75
2022/09/05 02:51:41;;;;;;;9.02;6.13;;;;;;;;;;5052328;28;20478;-74
2022/09/05 02:54:24;;;;;;;7.45;5.88;;;;;;;;;;5053804;28;20421;-74
2022/09/05 02:57:05;;;;;;;12.15;6.00;;;;;;;;;;5052115;28;20029;-74
2022/09/05 03:00:01;;;;;;;9.00;6.43;;;;;;;;;;5052082;28;20025;-74
2022/09/05 03:02:52;;;;;;;8.48;6.28;;;;;;;;;;5053421;28;20025;-74
2022/09/05 03:05:27;;;;;;;7.93;5.93;;;;;;;;;;5053293;28;20025;-74
2022/09/05 03:08:10;;;;;;;10.52;7.03;;;;;;;;;;5051438;28;20021;-75
2022/09/05 03:11:02;;;;;;;8.82;6.47;;;;;;;;;;5053563;28;20028;-76
2022/09/05 03:14:07;;;;;;;7.53;6.00;;;;;;;;;;5052162;28;20432;-75
2022/09/05 03:16:51;;;;;;;8.95;6.20;;;;;;;;;;5053060;28;20020;-75
2022/09/05 03:19:39;;;;;;;;;;;;;;;;;;5053489;28;20021;-75
2022/09/05 03:22:31;;;;;;;8.23;6.25;;;;;;;;;;5053416;28;19909;-75
2022/09/05 03:25:04;;;;;;;10.68;6.38;;;;;;;;;;5053105;28;20150;-75
2022/09/05 03:28:00;;;;;;;10.00;6.53;;;;;;;;;;5051828;28;20021;-75
2022/09/05 03:30:54;;;;;;;9.13;6.63;;;;;;;;;;5053024;28;20048;-74
2022/09/05 03:33:55;;;;;;;8.95;6.40;;;;;;;;;;5052136;28;20124;-74
2022/09/05 03:36:51;;;;;;;13.80;6.63;;;;;;;;;;5053083;28;20115;-74
2022/09/05 03:39:52;;;;;;;7.43;6.22;;;;;;;;;;5051721;28;20095;-73
2022/09/05 03:42:34;;;;;;;10.90;6.82;;;;;;;;;;5053091;28;20501;-74
2022/09/05 03:45:30;;;;;;;11.25;7.00;;;;;;;;;;5052835;28;20032;-74
2022/09/05 03:48:07;;;;;;;8.85;6.85;;;;;;;;;;5052887;28;20032;-75
2022/09/05 03:51:13;;;;;;;13.38;6.60;;;;;;;;;;5053132;28;20398;-75
2022/09/05 03:54:14;;;;;;;12.57;6.70;;;;;;;;;;5052699;28;20551;-74
2022/09/05 03:56:48;;;;;;;8.20;6.47;;;;;;;;;;5052755;28;20035;-75
2022/09/05 03:59:45;;;;;;;7.13;5.90;;;;;;;;;;5051323;28;20387;-73
2022/09/05 04:02:14;;;;;;;11.02;6.70;;;;;;;;;;5052602;28;20029;-74
2022/09/05 04:04:45;;;;;;;8.30;6.70;;;;;;;;;;5052191;28;20119;-74
2022/09/05 04:07:19;;;;;;;8.63;6.30;;;;;;;;;;5052410;28;20032;-74
2022/09/05 04:09:56;;;;;;;11.57;6.70;;;;;;;;;;5051381;28;20025;-74
2022/09/05 04:12:37;;;;;;;8.32;6.53;;;;;;;;;;5051323;28;20482;-74
2022/09/05 04:15:11;;;;;;;10.57;6.88;;;;;;;;;;5053137;28;20025;-74
2022/09/05 04:17:44;;;;;;;9.57;6.93;;;;;;;;;;5052568;28;20029;-74
2022/09/05 04:20:16;;;;;;;9.20;6.65;;;;;;;;;;5054107;28;20029;-74
2022/09/05 04:23:00;;;;;;;8.25;6.60;;;;;;;;;;5056653;28;20025;-73
2022/09/05 04:25:37;;;;;;;10.02;6.55;;;;;;;;;;5056221;28;20051;-74
2022/09/05 04:28:16;;;;;;;8.88;6.22;;;;;;;;;;5056769;28;20064;-76
2022/09/05 04:30:50;;;;;;;17.75;6.13;;;;;;;;;;5054915;28;20049;-74
2022/09/05 04:33:20;;;;;;;;;;;;;;;;;;5056534;28;20036;-74
2022/09/05 04:35:56;;;;;;;9.98;6.38;;;;;;;;;;5054747;28;19931;-74
2022/09/05 04:38:37;;;;;;;9.40;7.68;;;;;;;;;;5056535;28;20105;-74
2022/09/05 04:41:13;;;;;;;9.35;6.80;;;;;;;;;;5056253;28;20442;-75
2022/09/05 04:44:06;;;;;;;16.40;7.13;;;;;;;;;;5056549;28;20051;-74
2022/09/05 04:46:40;;;;;;;9.73;6.68;;;;;;;;;;5054601;28;20035;-74
2022/09/05 04:49:14;;;;;;;12.95;6.93;;;;;;;;;;5054602;28;20033;-74
2022/09/05 04:51:58;;;;;;;9.55;6.60;;;;;;;;;;5056388;28;20032;-75
2022/09/05 04:54:53;;;;;;;9.07;6.30;;;;;;;;;;5055809;28;20508;-74
2022/09/05 04:57:22;;;;;;;12.60;6.57;;;;;;;;;;5055880;28;20041;-74
2022/09/05 04:59:49;;;;;;;8.82;6.68;;;;;;;;;;5055846;28;20367;-74
2022/09/05 05:02:35;;;;;;;13.55;6.57;;;;;;;;;;5055487;28;20048;-74
2022/09/05 05:05:23;;;;;;;12.50;7.25;;;;;;;;;;5054135;28;20055;-74
2022/09/05 05:07:56;;;;;;;10.20;6.78;;;;;;;;;;5055278;28;20032;-75
2022/09/05 05:10:44;;;;;;;9.77;6.85;;;;;;;;;;5055547;28;20028;-74
2022/09/05 05:13:25;;;;;;;11.10;7.40;;;;;;;;;;5055803;28;20121;-74
2022/09/05 05:16:02;;;;;;;13.18;7.50;;;;;;;;;;5055386;28;20020;-75
2022/09/05 05:18:27;;;;;;;8.95;7.03;;;;;;;;;;5055046;28;20079;-75
2022/09/05 05:21:02;;;;;;;13.75;7.32;;;;;;;;;;5055291;28;20024;-73
2022/09/05 05:23:41;;;;;;;16.90;7.47;;;;;;;;;;5053834;28;20444;-74
2022/09/05 05:26:27;;;;;;;12.75;7.63;;;;;;;;;;5053747;28;20166;-73
2022/09/05 05:29:06;;;;;;;10.68;7.65;;;;;;;;;;5055333;28;20096;-73
2022/09/05 05:31:37;;;;;;;11.43;7.45;;;;;;;;;;5054196;28;20016;-74
2022/09/05 05:34:04;;;;;;;12.60;7.90;;;;;;;;;;5055285;28;20025;-74
2022/09/05 05:36:38;;;;;;;16.77;8.02;;;;;;;;;;5054791;28;20058;-74
2022/09/05 05:39:09;;;;;;;12.95;7.90;;;;;;;;;;5055111;28;20501;-73
2022/09/05 05:41:45;;;;;;;14.10;7.55;;;;;;;;;;5054836;28;20056;-73
2022/09/05 05:44:16;;;;;;;12.10;8.68;;;;;;;;;;5055026;28;20021;-75
2022/09/05 05:46:52;;;;;;;11.05;7.53;;;;;;;;;;5054872;28;20032;-75
2022/09/05 05:49:43;;;;;;;12.13;7.57;;;;;;;;;;5054836;28;20074;-74
2022/09/05 05:52:29;;;;;;;13.43;7.65;;;;;;;;;;5054603;28;20087;-74
2022/09/05 05:55:06;;;;;;;11.02;7.45;;;;;;;;;;5054559;28;20048;-74
2022/09/05 05:57:49;;;;;;;10.77;7.32;;;;;;;;;;5054647;28;20036;-75
2022/09/05 06:00:22;;;;;;;9.27;7.53;;;;;;;;;;5054514;28;20059;-74
2022/09/05 06:03:28;;;;;;;12.98;7.55;;;;;;;;;;5054226;28;20096;-74
2022/09/05 06:06:16;;;;;;;13.20;8.27;;;;;;;;;;5054517;28;20028;-76
2022/09/05 06:08:53;;;;;;;11.55;8.02;;;;;;;;;;5054852;28;20029;-76
2022/09/05 06:11:43;;;;;;;11.60;7.65;;;;;;;;;;5054135;28;20490;-74
2022/09/05 06:14:47;;;;;;;17.40;8.18;;;;;;;;;;5054351;28;20036;-74
2022/09/05 06:17:46;;;;;;;15.90;8.07;;;;;;;;;;5052786;28;20095;-74
2022/09/05 06:20:28;;;;;;;11.77;7.63;;;;;;;;;;5052616;28;20032;-74
2022/09/05 06:23:48;;;;;;;12.00;8.30;;;;;;;;;;5053966;28;20064;-74
2022/09/05 06:26:25;;;;;;;12.30;8.38;;;;;;;;;;5052430;28;20098;-74
2022/09/05 06:29:07;;;;;;;14.63;7.75;;;;;;;;;;5054357;28;20402;-73
2022/09/05 06:31:36;;;;;;;14.80;7.07;;;;;;;;;;5053810;28;20382;-73
2022/09/05 06:34:20;;;;;;;11.88;6.55;;;;;;;;;;5053395;28;20036;-78
2022/09/05 06:37:13;;;;;;;8.77;6.30;;;;;;;;;;5053837;28;20032;-77
2022/09/05 06:40:07;;;;;;;9.50;7.15;;;;;;;;;;5052287;28;20128;-76
2022/09/05 06:43:04;;;;;;;11.98;6.55;;;;;;;;;;5052277;28;20469;-77
2022/09/05 06:45:57;;;;;;;7.15;6.05;;;;;;;;;;5053744;28;20080;-76
2022/09/05 06:48:30;;;;;;;9.40;6.00;;;;;;;;;;5053509;28;20021;-76
2022/09/05 06:51:24;;;;;;;9.73;6.32;;;;;;;;;;5052825;28;20025;-77
2022/09/05 06:54:05;;;;;;;7.60;5.85;;;;;;;;;;5054352;28;20032;-75
2022/09/05 06:56:58;;;;;;;8.13;6.65;;;;;;;;;;5053733;28;20059;-74
2022/09/05 07:00:02;;;;;;;11.45;6.97;;;;;;;;;;5053653;28;20082;-73
2022/09/05 07:03:01;;;;;;;9.18;6.78;;;;;;;;;;5053194;28;20043;-75
2022/09/05 07:05:35;;;;;;;8.98;6.82;;;;;;;;;;5053054;28;20119;-75
2022/09/05 07:08:18;;;;;;;9.15;7.05;;;;;;;;;;5053889;28;20367;-75
2022/09/05 07:10:57;;;;;;;7.80;6.18;;;;;;;;;;5053289;28;20028;-75
2022/09/05 07:13:34;;;;;;;10.32;6.85;;;;;;;;;;5053047;28;20031;-75
2022/09/05 07:16:14;;;;;;;8.38;6.88;;;;;;;;;;5052897;28;20025;-75
2022/09/05 07:19:03;;;;;;;9.15;7.13;;;;;;;;;;5053144;28;20029;-75
2022/09/05 07:21:38;;;;;;;11.25;7.07;;;;;;;;;;5051623;28;20024;-75
2022/09/05 07:24:08;;;;;;;11.15;7.90;;;;;;;;;;5052889;28;20021;-75
2022/09/05 07:26:38;;;;;;;9.07;7.57;;;;;;;;;;5052772;28;20504;-75
2022/09/05 07:29:06;;;;;;;9.90;7.25;;;;;;;;;;5051436;28;20025;-75
2022/09/05 07:31:34;;;;;;;9.60;7.38;;;;;;;;;;5052785;28;20036;-75
2022/09/05 07:34:21;;;;;;;9.02;7.03;;;;;;;;;;5053051;28;20032;-75
2022/09/05 07:36:51;;;;;;;10.25;7.20;;;;;;;;;;5052641;28;20108;-75
2022/09/05 07:39:25;;;;;;;13.48;7.68;;;;;;;;;;5051365;28;20441;-75
2022/09/05 07:41:54;;;;;;;10.40;7.22;;;;;;;;;;5053278;28;20541;-74
2022/09/05 07:44:26;;;;;;;9.40;7.65;;;;;;;;;;5051431;28;20123;-74
2022/09/05 07:46:59;;;;;;;9.90;7.40;;;;;;;;;;5051347;28;20104;-74
2022/09/05 07:49:28;;;;;;;9.43;7.50;;;;;;;;;;5052948;28;20473;-74
2022/09/05 07:52:00;;;;;;;12.35;8.77;;;;;;;;;;5051395;28;20061;-74
2022/09/05 07:54:28;;;;;;;10.50;7.88;;;;;;;;;;5053379;28;20032;-74
2022/09/05 07:57:08;;;;;;;10.02;7.47;;;;;;;;;;5056880;28;20343;-74
2022/09/05 07:59:37;;;;;;;13.90;7.70;;;;;;;;;;5056458;28;20505;-74
2022/09/05 08:02:04;;;;;;;9.63;7.20;;;;;;;;;;5056585;28;20108;-75
2022/09/05 08:04:32;;;;;;;8.60;6.85;;;;;;;;;;5056550;28;20454;-75
2022/09/05 08:07:03;;;;;;;9.10;6.95;;;;;;;;;;5056420;28;20044;-74
2022/09/05 08:09:44;;;;;;;11.70;7.95;;;;;;;;;;5056740;28;20020;-74
2022/09/05 08:12:27;;;;;;;8.75;7.15;;;;;;;;;;5056728;28;20032;-75
2022/09/05 08:15:07;;;;;;;11.15;7.13;;;;;;;;;;5056714;28;20100;-75
2022/09/05 08:17:41;;;;;;;9.23;7.22;;;;;;;;;;5056347;28;20032;-74
2022/09/05 08:20:46;;;;;;;9.90;7.18;;;;;;;;;;5055031;28;20505;-73
2022/09/05 08:23:38;;;;;;;9.05;6.82;;;;;;;;;;5054892;28;20021;-73
2022/09/05 08:26:11;;;;;;;10.68;6.72;;;;;;;;;;5056095;28;20029;-74
2022/09/05 08:29:00;;;;;;;10.25;7.07;;;;;;;;;;5056485;28;20029;-75
2022/09/05 08:31:37;;;;;;;7.60;6.30;;;;;;;;;;5056266;28;20029;-74
2022/09/05 08:34:10;;;;;;;11.05;7.20;;;;;;;;;;5056173;28;20025;-74
2022/09/05 08:36:41;;;;;;;11.65;6.57;;;;;;;;;;5056310;28;20032;-75
2022/09/05 08:39:07;;;;;;;6.57;5.88;;;;;;;;;;5056167;28;20025;-75
2022/09/05 08:41:48;;;;;;;9.70;6.80;;;;;;;;;;5054586;28;20482;-75
2022/09/05 08:44:34;;;;;;;9.02;6.20;;;;;;;;;;5055816;28;20543;-75
2022/09/05 08:47:20;;;;;;;8.85;6.60;;;;;;;;;;5055927;28;20032;-74
2022/09/05 08:50:00;;;;;;;8.10;6.80;;;;;;;;;;5054606;28;20047;-75
2022/09/05 08:52:36;;;;;;;9.32;6.80;;;;;;;;;;5055656;28;20032;-75
2022/09/05 08:55:24;;;;;;;9.25;6.75;;;;;;;;;;5055577;28;20025;-75
2022/09/05 08:58:26;;;;;;;10.02;6.95;;;;;;;;;;5054138;28;20406;-74
2022/09/05 09:00:57;;;;;;;9.90;6.57;;;;;;;;;;5054335;28;20021;-75
2022/09/05 09:03:33;;;;;;;9.10;6.78;;;;;;;;;;5055581;28;20040;-74
2022/09/05 09:06:20;;;;;;;8.27;6.90;;;;;;;;;;5054264;28;20065;-75
2022/09/05 09:09:09;;;;;;;11.30;6.80;;;;;;;;;;5055363;28;20025;-74
2022/09/05 09:11:40;;;;;;;10.45;6.97;;;;;;;;;;5055342;28;20028;-75
2022/09/05 09:14:24;;;;;;;8.10;6.75;;;;;;;;;;5056060;28;20367;-75
2022/09/05 09:17:13;;;;;;;10.13;6.97;;;;;;;;;;5055121;28;20025;-74
2022/09/05 09:20:03;;;;;;;10.38;7.13;;;;;;;;;;5055010;28;20017;-74
2022/09/05 09:22:46;;;;;;;13.63;6.50;;;;;;;;;;5055308;28;20025;-74
2022/09/05 09:25:22;;;;;;;9.85;6.80;;;;;;;;;;5054931;28;20511;-75
2022/09/05 09:28:12;;;;;;;8.73;7.00;;;;;;;;;;5055053;28;20135;-75
2022/09/05 09:30:43;;;;;;;8.27;6.72;;;;;;;;;;5055128;28;20059;-75
2022/09/05 09:33:19;;;;;;;9.07;7.13;;;;;;;;;;5054934;28;20024;-75
2022/09/05 09:36:02;;;;;;;9.25;6.53;;;;;;;;;;5055055;28;20025;-75
2022/09/05 09:39:12;;;;;;;9.38;7.22;;;;;;;;;;5055050;28;20098;-75
2022/09/05 09:41:55;;;;;;;8.10;6.28;;;;;;;;;;5053836;28;20052;-74
2022/09/05 09:45:00;;;;;;;9.38;7.05;;;;;;;;;;5054880;28;20032;-75
2022/09/05 09:47:56;;;;;;;7.75;6.22;;;;;;;;;;5054892;28;20021;-75
2022/09/05 09:50:56;;;;;;;9.52;6.20;;;;;;;;;;5054867;28;20024;-75
2022/09/05 09:53:41;;;;;;;7.60;6.30;;;;;;;;;;5053413;28;20024;-75
2022/09/05 09:56:31;;;;;;;7.05;6.15;;;;;;;;;;5054577;28;20029;-75
2022/09/05 09:59:03;;;;;;;8.55;6.30;;;;;;;;;;5054363;28;20086;-75
2022/09/05 10:02:00;;;;;;;6.47;5.53;;;;;;;;;;5054281;28;20025;-74
2022/09/05 10:04:42;;;;;;;8.75;5.78;;;;;;;;;;5054313;28;20035;-75
2022/09/05 10:07:35;;;;;;;7.80;6.28;;;;;;;;;;5053113;28;20029;-76
2022/09/05 10:10:44;;;;;;;7.35;5.97;;;;;;;;;;5054218;28;20033;-75
2022/09/05 10:13:23;;;;;;;10.27;5.93;;;;;;;;;;5054475;28;20060;-74
2022/09/05 10:16:26;;;;;;;7.40;5.38;;;;;;;;;;5052762;28;20074;-75
2022/09/05 10:19:29;;;;;;;7.15;5.72;;;;;;;;;;5053719;28;20025;-75
2022/09/05 10:22:12;;;;;;;8.57;4.88;;;;;;;;;;5054217;28;20033;-75
2022/09/05 10:24:59;;;;;;;7.60;5.60;;;;;;;;;;5053867;28;20067;-74
2022/09/05 10:27:59;;;;;;;7.35;5.65;;;;;;;;;;5053774;28;20486;-74
2022/09/05 10:30:46;;;;;;;8.07;5.80;;;;;;;;;;5053828;28;20478;-74
2022/09/05 10:33:32;;;;;;;7.40;4.88;;;;;;;;;;5053765;28;20154;-74
2022/09/05 10:36:21;;;;;;;5.78;5.07;;;;;;;;;;5052455;28;20060;-74
2022/09/05 10:38:56;;;;;;;7.18;5.15;;;;;;;;;;5054016;28;20040;-75
2022/09/05 10:41:29;;;;;;;6.03;4.88;;;;;;;;;;5052412;28;20025;-75
2022/09/05 10:44:01;;;;;;;6.00;4.50;;;;;;;;;;5054135;28;20443;-75
2022/09/05 10:46:53;;;;;;;5.47;4.28;;;;;;;;;;5053516;28;20067;-74
2022/09/05 10:49:28;;;;;;;5.72;4.47;;;;;;;;;;5053093;28;20133;-75
2022/09/05 10:52:31;;;;;;;6.72;4.63;;;;;;;;;;5053801;28;20116;-75
2022/09/05 10:55:06;;;;;;;9.55;4.60;;;;;;;;;;5041760;28;20041;-76
2022/09/05 10:57:38;;;;;;;7.07;4.32;;;;;;;;;;5053549;28;20138;-76
2022/09/05 11:00:22;;;;;;;7.57;4.20;;;;;;;;;;5053677;28;20043;-76
2022/09/05 11:02:54;;;;;;;6.25;4.38;;;;;;;;;;5052047;28;20028;-75
2022/09/05 11:05:26;;;;;;;7.10;4.07;;;;;;;;;;5053220;28;20033;-75
2022/09/05 11:08:20;;;;;;;4.80;4.03;;;;;;;;;;5054235;28;20029;-75
2022/09/05 11:10:58;;;;;;;6.05;4.00;;;;;;;;;;5053413;28;20033;-75
2022/09/05 11:13:46;;;;;;;6.68;3.95;;;;;;;;;;5052815;28;20098;-76
2022/09/05 11:16:45;;;;;;;5.30;4.05;;;;;;;;;;5053007;28;20021;-76
2022/09/05 11:19:20;;;;;;;7.57;3.90;;;;;;;;;;5051694;28;20025;-74
2022/09/05 11:21:53;;;;;;;6.78;3.92;;;;;;;;;;5053278;28;20031;-75
2022/09/05 11:24:38;;;;;;;9.35;4.22;;;;;;;;;;5053236;28;20017;-75
2022/09/05 11:27:09;;;;;;;5.00;3.72;;;;;;;;;;5051583;28;20058;-74
2022/09/05 11:29:42;;;;;;;8.13;3.83;;;;;;;;;;5052456;28;20048;-75
2022/09/05 11:32:38;;;;;;;4.47;3.97;;;;;;;;;;5051656;28;20030;-74
2022/09/05 11:35:21;;;;;;;7.90;3.50;;;;;;;;;;5051656;28;20064;-75
2022/09/05 11:38:08;;;;;;;7.95;3.63;;;;;;;;;;5053166;28;20025;-75
2022/09/05 11:40:52;;;;;;;5.50;3.47;;;;;;;;;;5051511;28;20474;-75
2022/09/05 11:43:36;;;;;;;3.72;3.03;;;;;;;;;;5053088;28;20446;-75
2022/09/05 11:46:37;;;;;;;6.10;2.90;;;;;;;;;;5052624;28;20059;-75
2022/09/05 11:49:34;;;;;;;4.25;3.35;;;;;;;;;;5053211;28;20486;-75
2022/09/05 11:52:31;;;;;;;5.82;3.30;;;;;;;;;;5053236;28;20116;-75
2022/09/05 11:55:22;;;;;;;4.43;3.10;;;;;;;;;;5052953;28;20025;-75
2022/09/05 11:58:17;;;;;;;4.80;3.45;;;;;;;;;;5052616;28;20465;-75
2022/09/05 12:00:50;;;;;;;4.20;3.72;;;;;;;;;;5052624;28;20393;-75
2022/09/05 12:03:53;;;;;;;4.32;3.58;;;;;;;;;;5052716;28;20048;-75
2022/09/05 12:06:43;;;;;;;4.28;3.50;;;;;;;;;;5052423;28;20501;-75
2022/09/05 12:09:19;;;;;;;4.55;3.22;;;;;;;;;;5053046;28;20025;-74
2022/09/05 12:12:10;;;;;;;5.93;3.10;;;;;;;;;;5052645;28;20492;-75
2022/09/05 12:14:58;;;;;;;6.97;3.58;;;;;;;;;;5051287;28;20120;-76
2022/09/05 12:17:59;;;;;;;5.20;3.55;;;;;;;;;;5052395;28;20032;-75
2022/09/05 12:20:35;;;;;;;5.88;3.55;;;;;;;;;;5052733;28;20021;-75
2022/09/05 12:23:09;;;;;;;6.63;3.65;;;;;;;;;;5053022;28;20082;-75
2022/09/05 12:25:47;;;;;;;4.50;3.38;;;;;;;;;;5052545;28;20037;-75
2022/09/05 12:28:26;;;;;;;5.13;3.55;;;;;;;;;;5052428;28;20021;-75
2022/09/05 12:30:53;;;;;;;6.00;3.80;;;;;;;;;;5052606;28;20363;-75
2022/09/05 12:33:26;;;;;;;5.80;3.92;;;;;;;;;;5052311;28;20471;-75
2022/09/05 12:36:10;;;;;;;4.63;3.63;;;;;;;;;;5052377;28;20036;-76
2022/09/05 12:38:47;;;;;;;6.97;3.63;;;;;;;;;;5052246;28;20208;-75
2022/09/05 12:41:20;;;;;;;4.30;3.50;;;;;;;;;;5053847;28;20040;-75
2022/09/05 12:44:21;;;;;;;6.22;3.65;;;;;;;;;;5055890;28;20039;-75
2022/09/05 12:46:56;;;;;;;6.95;3.47;;;;;;;;;;5056075;28;20025;-75
2022/09/05 12:49:30;;;;;;;7.90;3.38;;;;;;;;;;5054645;28;20013;-76
2022/09/05 12:52:03;;;;;;;4.78;3.70;;;;;;;;;;5055721;28;20361;-75
2022/09/05 12:54:46;;;;;;;7.22;4.10;;;;;;;;;;5055891;28;20029;-75
2022/09/05 12:57:32;;;;;;;5.93;3.77;;;;;;;;;;5055942;28;20352;-75
2022/09/05 13:00:03;;;;;;;10.10;3.92;;;;;;;;;;5055808;28;20281;-75
2022/09/05 13:02:32;;;;;;;5.35;3.65;;;;;;;;;;5055567;28;20508;-75
2022/09/05 13:05:02;;;;;;;9.05;3.83;;;;;;;;;;5055407;28;20079;-75
2022/09/05 13:07:49;;;;;;;13.40;4.28;;;;;;;;;;5054122;28;20031;-75
2022/09/05 13:10:23;;;;;;;4.68;3.97;;;;;;;;;;5054145;28;20069;-75
2022/09/05 13:12:54;;;;;;;;;;;;;;;;;;5056090;28;20421;-75
2022/09/05 13:15:34;;;;;;;5.15;3.58;;;;;;;;;;5055630;28;20277;-75
2022/09/05 13:18:13;;;;;;;6.07;3.60;;;;;;;;;;5054286;28;20482;-75
2022/09/05 13:20:50;;;;;;;8.13;3.70;;;;;;;;;;5055139;28;20032;-75
2022/09/05 13:23:24;;;;;;;5.63;3.80;;;;;;;;;;5053860;28;20532;-75
2022/09/05 13:26:10;;;;;;;4.93;3.80;;;;;;;;;;5053573;28;20033;-75
2022/09/05 13:28:47;;;;;;;6.15;3.85;;;;;;;;;;5053943;28;20429;-74
2022/09/05 13:31:14;;;;;;;7.65;3.80;;;;;;;;;;5055169;28;20032;-75
2022/09/05 13:33:47;;;;;;;5.35;4.22;;;;;;;;;;5053656;28;20120;-75
2022/09/05 13:36:20;;;;;;;4.63;3.88;;;;;;;;;;5055154;28;20020;-75
2022/09/05 13:39:03;;;;;;;6.30;4.40;;;;;;;;;;5055154;28;20032;-76
2022/09/05 13:41:33;;;;;;;5.80;4.18;;;;;;;;;;5054902;28;20083;-75
2022/09/05 13:43:59;;;;;;;5.25;4.13;;;;;;;;;;5054812;28;20054;-75
2022/09/05 13:46:46;;;;;;;6.95;4.28;;;;;;;;;;5054820;28;20031;-75
2022/09/05 13:49:23;;;;;;;7.47;4.30;;;;;;;;;;5054587;28;20013;-74
2022/09/05 13:52:24;;;;;;;4.32;3.60;;;;;;;;;;5052985;28;20028;-74
2022/09/05 13:55:07;;;;;;;6.47;3.90;;;;;;;;;;5053355;28;20029;-75
2022/09/05 13:58:05;;;;;;;7.40;3.92;;;;;;;;;;5054669;28;20025;-76
2022/09/05 14:00:31;;;;;;;8.70;3.90;;;;;;;;;;5053164;28;20045;-75
2022/09/05 14:03:42;;;;;;;6.43;3.73;;;;;;;;;;5054472;28;20047;-74
2022/09/05 14:07:05;;;;;;;8.30;4.18;;;;;;;;;;5054314;28;20030;-75
2022/09/05 14:10:09;;;;;;;6.10;3.97;;;;;;;;;;5052359;28;20505;-74
2022/09/05 14:12:44;;;;;;;5.60;4.28;;;;;;;;;;5041792;28;20037;-75
2022/09/05 14:15:30;;;;;;;4.78;3.97;;;;;;;;;;5048525;28;20033;-74
2022/09/05 14:18:01;;;;;;;6.82;3.80;;;;;;;;;;5052936;28;20025;-74
2022/09/05 14:23:19;;;;;;;7.78;4.28;;;;;;;;;;5054638;28;20551;-75
2022/09/05 14:25:53;;;;;;;4.78;3.88;;;;;;;;;;5054116;28;20111;-76
2022/09/05 14:28:30;;;;;;;7.70;3.83;;;;;;;;;;5053932;28;20505;-75
2022/09/05 14:31:06;;;;;;;5.82;3.95;;;;;;;;;;5054133;28;20036;-75
2022/09/05 14:33:41;;;;;;;4.95;3.75;;;;;;;;;;5053865;28;20474;-75
2022/09/05 14:36:16;;;;;;;6.13;4.20;;;;;;;;;;5053625;28;20050;-75
2022/09/05 14:39:16;;;;;;;7.90;3.80;;;;;;;;;;5053882;28;20467;-75
2022/09/05 14:42:03;;;;;;;5.78;3.60;;;;;;;;;;5053787;28;20052;-75
2022/09/05 14:44:52;;;;;;;8.88;3.92;;;;;;;;;;5053388;28;20052;-75
2022/09/05 14:47:47;;;;;;;5.25;3.70;;;;;;;;;;5053332;28;20025;-74
2022/09/05 14:50:38;;;;;;;5.63;4.00;;;;;;;;;;5053750;28;20024;-75
2022/09/05 14:53:09;;;;;;;5.68;3.78;;;;;;;;;;5053763;28;20086;-75
2022/09/05 14:55:35;;;;;;;6.57;3.63;;;;;;;;;;5052454;28;20154;-74
2022/09/05 14:58:00;;;;;;;9.77;4.00;;;;;;;;;;5053438;28;20123;-75
2022/09/05 15:00:28;;;;;;;5.10;3.80;;;;;;;;;;5052136;28;20167;-76
2022/09/05 15:02:55;;;;;;;4.93;3.63;;;;;;;;;;5053721;28;20028;-73
2022/09/05 15:05:27;;;;;;;5.82;4.20;;;;;;;;;;5053214;28;20028;-76
2022/09/05 15:08:04;;;;;;;5.55;3.85;;;;;;;;;;5053383;28;20029;-76
2022/09/05 15:10:34;;;;;;;10.38;3.83;;;;;;;;;;5053064;28;20051;-74
2022/09/05 15:13:22;;;;;;;5.00;3.85;;;;;;;;;;5053492;28;20106;-75
2022/09/05 15:15:57;;;;;;;7.00;3.55;;;;;;;;;;5051726;28;20033;-74
2022/09/05 15:18:33;;;;;;;4.25;3.53;;;;;;;;;;5051714;28;20032;-74
2022/09/05 15:21:21;;;;;;;8.57;3.60;;;;;;;;;;5053133;28;20020;-75
2022/09/05 15:23:58;;;;;;;4.30;3.70;;;;;;;;;;5053311;28;20025;-75
2022/09/05 15:26:23;;;;;;;4.75;3.75;;;;;;;;;;5051735;28;20082;-75
2022/09/05 15:28:50;;;;;;;3.90;3.47;;;;;;;;;;5052670;28;20028;-75
2022/09/05 15:31:18;;;;;;;4.20;3.80;;;;;;;;;;5053129;28;20025;-74
2022/09/05 15:33:45;;;;;;;6.25;3.47;;;;;;;;;;5051482;28;20024;-76
2022/09/05 15:36:12;;;;;;;5.93;4.03;;;;;;;;;;5052724;28;20078;-75
2022/09/05 15:38:40;;;;;;;7.30;4.00;;;;;;;;;;5053051;28;20363;-76
2022/09/05 15:41:18;;;;;;;6.32;4.00;;;;;;;;;;5052711;28;20025;-74
2022/09/05 15:43:50;;;;;;;5.32;4.00;;;;;;;;;;5053005;28;20017;-75
2022/09/05 15:46:24;;;;;;;4.50;4.10;;;;;;;;;;5051193;28;20040;-76
2022/09/05 15:48:55;;;;;;;5.07;4.10;;;;;;;;;;5052764;28;20017;-76
2022/09/05 15:51:33;;;;;;;7.10;4.55;;;;;;;;;;5052680;28;20104;-75
2022/09/05 15:54:00;;;;;;;7.00;4.00;;;;;;;;;;5052069;28;20111;-75
2022/09/05 15:56:27;;;;;;;7.80;4.47;;;;;;;;;;5051222;28;20486;-75
2022/09/05 15:58:55;;;;;;;9.13;4.68;;;;;;;;;;5052580;28;20046;-74
2022/09/05 16:01:28;;;;;;;6.18;4.45;;;;;;;;;;5052772;28;20552;-74
2022/09/05 16:03:54;;;;;;;8.77;5.00;;;;;;;;;;5051474;28;20535;-76
2022/09/05 16:06:29;;;;;;;5.30;4.80;;;;;;;;;;5052454;28;20300;-75
2022/09/05 16:09:00;;;;;;;7.03;4.82;;;;;;;;;;5052829;28;20024;-76
2022/09/05 16:11:43;;;;;;;8.63;4.88;;;;;;;;;;5052561;28;20028;-75